Time;durP1;ratioP1;P1;durP2;ratioP2;P2;SDS_P1;SDS_P2;PMS_P1;PMS_P2;Temp;Humidity;BMP_temperature;BMP_pressure;BME280_temperature;BME280_humidity;BME280_pressure;Samples;Min_cycle;Max_cycle;Signal;HPM_P1;HPM_P2
2022/08/20 00:01:09;;;;;;;;;;;22.50;47.90;;;;;;4912259;29;19930;-87
2022/08/20 00:03:38;;;;;;;;;;;22.50;46.90;;;;;;4912549;29;19962;-89
2022/08/20 00:06:10;;;;;;;;;;;22.70;46.60;;;;;;4909479;29;19930;-86
2022/08/20 00:08:37;;;;;;;;;;;22.80;46.10;;;;;;4937915;29;19926;-85
2022/08/20 00:11:05;;;;;;;;;;;22.80;45.80;;;;;;4913506;29;19931;-91
2022/08/20 00:13:37;;;;;;;;;;;22.90;45.60;;;;;;4922094;29;20347;-90
2022/08/20 00:16:06;;;;;;;;;;;23.00;45.50;;;;;;4913696;29;19978;-85
2022/08/20 00:18:35;;;;;;;;;;;23.00;45.10;;;;;;4912295;29;19998;-91
2022/08/20 00:21:04;;;;;;;;;;;23.10;45.00;;;;;;4937170;29;19927;-90
2022/08/20 00:23:35;;;;;;;;;;;23.20;44.60;;;;;;4918565;29;20021;-91
2022/08/20 00:26:03;;;;;;;;;;;23.20;44.70;;;;;;4926723;29;20387;-85
2022/08/20 00:28:29;;;;;;;;;;;23.20;45.10;;;;;;4922336;29;20081;-85
2022/08/20 00:30:57;;;;;;;;;;;23.20;44.40;;;;;;4915841;29;19931;-88
2022/08/20 00:33:24;;;;;;;;;;;23.20;44.40;;;;;;4912759;29;19982;-91
2022/08/20 00:35:52;;;;;;;;;;;23.20;44.40;;;;;;4919850;29;19982;-87
2022/08/20 00:38:19;;;;;;;;;;;23.30;44.10;;;;;;4921977;29;19927;-90
2022/08/20 00:40:56;;;;;;;;;;;23.30;44.10;;;;;;4918207;29;19935;-84
2022/08/20 00:43:29;;;;;;;;;;;23.30;44.10;;;;;;4935105;29;19954;-87
2022/08/20 00:45:56;;;;;;;;;;;23.30;44.10;;;;;;4936338;29;19931;-87
2022/08/20 00:48:26;;;;;;;;;;;23.30;44.00;;;;;;4918615;29;19960;-90
2022/08/20 00:50:56;;;;;;;;;;;23.20;44.10;;;;;;4923099;28;20276;-89
2022/08/20 00:53:24;;;;;;;;;;;23.10;44.40;;;;;;4929466;29;19979;-87
2022/08/20 00:55:51;;;;;;;;;;;23.10;44.50;;;;;;4917781;29;19926;-90
2022/08/20 00:58:18;;;;;;;;;;;23.10;44.20;;;;;;4912431;29;19978;-89
2022/08/20 01:00:46;;;;;;;;;;;23.10;44.30;;;;;;4917618;29;19934;-87
2022/08/20 01:03:14;;;;;;;;;;;23.10;44.20;;;;;;4918237;29;19959;-90
2022/08/20 01:05:43;;;;;;;;;;;23.10;43.90;;;;;;4942418;29;19926;-84
2022/08/20 01:08:10;;;;;;;;;;;23.10;43.60;;;;;;4915561;29;19931;-85
2022/08/20 01:10:39;;;;;;;;;;;23.10;43.30;;;;;;4908261;29;19927;-88
2022/08/20 01:13:09;;;;;;;;;;;23.20;43.20;;;;;;4919272;29;20430;-86
2022/08/20 01:15:40;;;;;;;;;;;23.20;43.20;;;;;;4937662;29;19927;-86
2022/08/20 01:18:11;;;;;;;;;;;23.20;43.20;;;;;;4923140;29;20021;-86
2022/08/20 01:20:43;;;;;;;;;;;23.20;43.00;;;;;;4914526;29;19979;-87
2022/08/20 01:23:33;;;;;;;;;;;23.20;43.20;;;;;;4910905;29;19931;-91
2022/08/20 01:26:03;;;;;;;;;;;23.20;43.20;;;;;;4906126;29;19931;-86
2022/08/20 01:28:38;;;;;;;;;;;23.20;43.70;;;;;;4919254;29;19978;-90
2022/08/20 01:31:09;;;;;;;;;;;23.10;43.20;;;;;;4913481;29;20021;-91
2022/08/20 01:33:36;;;;;;;;;;;23.10;42.70;;;;;;4929174;29;19981;-88
2022/08/20 01:36:04;;;;;;;;;;;23.20;42.50;;;;;;4919341;29;19989;-86
2022/08/20 01:38:31;;;;;;;;;;;23.20;42.70;;;;;;4918615;29;19926;-87
2022/08/20 01:41:17;;;;;;;;;;;23.20;42.30;;;;;;4925399;29;19974;-90
2022/08/20 01:43:55;;;;;;;;;;;23.20;42.20;;;;;;4931055;29;19934;-86
2022/08/20 01:46:25;;;;;;;;;;;23.20;42.80;;;;;;4914802;29;19931;-86
2022/08/20 01:48:53;;;;;;;;;;;23.20;42.40;;;;;;4914390;29;19934;-90
2022/08/20 01:51:23;;;;;;;;;;;23.10;42.40;;;;;;4921873;29;19927;-90
2022/08/20 01:53:54;;;;;;;;;;;23.10;42.50;;;;;;4908104;29;20447;-85
2022/08/20 01:56:23;;;;;;;;;;;23.10;42.30;;;;;;4906794;29;19955;-88
2022/08/20 01:58:51;;;;;;;;;;;23.20;42.30;;;;;;4917038;29;20006;-86
2022/08/20 02:01:31;;;;;;;;;;;23.20;41.90;;;;;;4933990;29;19934;-90
2022/08/20 02:04:12;;;;;;;;;;;23.20;41.80;;;;;;4924689;29;20402;-87
2022/08/20 02:06:43;;;;;;;;;;;23.30;41.60;;;;;;4919288;29;19927;-86
2022/08/20 02:09:27;;;;;;;;;;;23.30;41.60;;;;;;4916537;29;19931;-90
2022/08/20 02:11:56;;;;;;;;;;;23.30;41.60;;;;;;4909042;29;19934;-85
2022/08/20 02:14:23;;;;;;;;;;;23.30;41.60;;;;;;4934857;29;20041;-85
2022/08/20 02:16:50;;;;;;;;;;;23.30;42.00;;;;;;4912143;29;19978;-89
2022/08/20 02:19:33;;;;;;;;;;;23.30;42.90;;;;;;4913157;29;20293;-89
2022/08/20 02:22:03;;;;;;;;;;;23.20;42.10;;;;;;4942062;29;20443;-90
2022/08/20 02:24:30;;;;;;;;;;;23.20;42.10;;;;;;4919517;29;19938;-86
2022/08/20 02:26:57;;;;;;;;;;;23.20;42.10;;;;;;4932523;29;19982;-85
2022/08/20 02:29:26;;;;;;;;;;;23.20;42.10;;;;;;4913920;29;20021;-90
2022/08/20 02:31:53;;;;;;;;;;;23.20;42.10;;;;;;4924489;29;20010;-86
2022/08/20 02:34:40;;;;;;;;;;;23.10;42.50;;;;;;4923502;29;20371;-89
2022/08/20 02:37:07;;;;;;;;;;;23.10;42.80;;;;;;4914190;29;20215;-88
2022/08/20 02:39:34;;;;;;;;;;;23.00;42.90;;;;;;4914965;29;19927;-89
2022/08/20 02:42:02;;;;;;;;;;;23.10;42.30;;;;;;4915993;29;19975;-90
2022/08/20 02:44:30;;;;;;;;;;;23.00;42.70;;;;;;4915526;29;19927;-86
2022/08/20 02:46:57;;;;;;;;;;;23.10;42.70;;;;;;4917162;29;19931;-90
2022/08/20 02:49:25;;;;;;;;;;;23.00;43.00;;;;;;4915836;29;20347;-90
2022/08/20 02:51:52;;;;;;;;;;;23.00;42.80;;;;;;4917261;29;19974;-87
2022/08/20 02:54:18;;;;;;;;;;;23.00;42.90;;;;;;4922100;29;19931;-85
2022/08/20 02:56:48;;;;;;;;;;;23.00;42.70;;;;;;4912396;29;19927;-89
2022/08/20 02:59:15;;;;;;;;;;;22.90;42.80;;;;;;4929798;29;19969;-86
2022/08/20 03:01:47;;;;;;;;;;;23.00;42.90;;;;;;4926094;29;19966;-84
2022/08/20 03:04:25;;;;;;;;;;;23.00;42.90;;;;;;4905625;29;19933;-89
2022/08/20 03:06:53;;;;;;;;;;;23.00;43.10;;;;;;4915559;29;19931;-88
2022/08/20 03:09:20;;;;;;;;;;;23.00;43.10;;;;;;4937912;29;20395;-86
2022/08/20 03:11:50;;;;;;;;;;;22.90;42.70;;;;;;4929243;29;19935;-90
2022/08/20 03:14:19;;;;;;;;;;;22.90;43.00;;;;;;4919319;29;19933;-85
2022/08/20 03:16:46;;;;;;;;;;;22.80;43.00;;;;;;4935601;29;19934;-87
2022/08/20 03:19:13;;;;;;;;;;;22.80;43.20;;;;;;4937922;29;19935;-89
2022/08/20 03:21:40;;;;;;;;;;;22.80;43.10;;;;;;4920374;29;19933;-86
2022/08/20 03:24:07;;;;;;;;;;;22.70;43.30;;;;;;4916070;29;19961;-85
2022/08/20 03:26:34;;;;;;;;;;;22.80;43.00;;;;;;4930627;29;19981;-86
2022/08/20 03:29:00;;;;;;;;;;;22.80;42.80;;;;;;4908596;29;19978;-87
2022/08/20 03:31:28;;;;;;;;;;;22.70;43.00;;;;;;4898617;29;19931;-89
2022/08/20 03:33:55;;;;;;;;;;;22.80;43.00;;;;;;4921754;29;19978;-86
2022/08/20 03:36:23;;;;;;;;;;;22.80;42.90;;;;;;4906366;29;20453;-85
2022/08/20 03:38:55;;;;;;;;;;;22.70;43.00;;;;;;4898696;29;20014;-87
2022/08/20 03:41:25;;;;;;;;;;;22.70;43.30;;;;;;4898955;29;19931;-89
2022/08/20 03:43:52;;;;;;;;;;;22.70;42.60;;;;;;4896233;29;19926;-84
2022/08/20 03:46:19;;;;;;;;;;;22.70;42.80;;;;;;4918293;29;19934;-88
2022/08/20 03:48:50;;;;;;;;;;;22.70;43.10;;;;;;4900321;29;19947;-89
2022/08/20 03:51:37;;;;;;;;;;;22.70;43.00;;;;;;4916508;29;20022;-88
2022/08/20 03:54:23;;;;;;;;;;;22.70;42.80;;;;;;4902802;29;20013;-89
2022/08/20 03:57:01;;;;;;;;;;;22.70;43.10;;;;;;4905654;29;19927;-90
2022/08/20 03:59:38;;;;;;;;;;;22.70;43.20;;;;;;4922431;29;20366;-85
2022/08/20 04:02:06;;;;;;;;;;;22.70;43.00;;;;;;4905608;29;19931;-91
2022/08/20 04:04:33;;;;;;;;;;;22.60;43.40;;;;;;4906327;29;20388;-90
2022/08/20 04:07:07;;;;;;;;;;;22.60;43.00;;;;;;4900534;29;20002;-91
2022/08/20 04:09:33;;;;;;;;;;;22.50;43.10;;;;;;4908037;29;19938;-86
2022/08/20 04:12:00;;;;;;;;;;;22.50;43.20;;;;;;4918971;29;19951;-89
2022/08/20 04:14:27;;;;;;;;;;;22.50;42.90;;;;;;4895645;29;19939;-90
2022/08/20 04:16:54;;;;;;;;;;;22.50;43.20;;;;;;4899590;29;19927;-89
2022/08/20 04:19:22;;;;;;;;;;;22.50;42.80;;;;;;4895420;29;19991;-84
2022/08/20 04:21:49;;;;;;;;;;;22.60;42.40;;;;;;4910369;29;20388;-84
2022/08/20 04:24:16;;;;;;;;;;;22.70;42.60;;;;;;4909928;29;19930;-89
2022/08/20 04:26:58;;;;;;;;;;;22.70;42.40;;;;;;4928933;29;19973;-84
2022/08/20 04:29:26;;;;;;;;;;;22.70;42.40;;;;;;4918967;29;19927;-90
2022/08/20 04:31:59;;;;;;;;;;;22.70;42.90;;;;;;4919737;29;20471;-89
2022/08/20 04:34:28;;;;;;;;;;;22.60;42.50;;;;;;4905573;29;19957;-90
2022/08/20 04:36:55;;;;;;;;;;;22.70;42.40;;;;;;4917992;29;19926;-91
2022/08/20 04:39:24;;;;;;;;;;;22.60;42.40;;;;;;4916714;29;19927;-89
2022/08/20 04:41:51;;;;;;;;;;;22.70;42.20;;;;;;4918913;29;19927;-92
2022/08/20 04:44:24;;;;;;;;;;;22.70;42.40;;;;;;4920764;29;19927;-90
2022/08/20 04:46:50;;;;;;;;;;;22.70;42.20;;;;;;4913521;29;19927;-89
2022/08/20 04:49:25;;;;;;;;;;;22.70;42.40;;;;;;4913695;29;19998;-89
2022/08/20 04:51:53;;;;;;;;;;;22.70;42.50;;;;;;4917199;29;19931;-87
2022/08/20 04:54:20;;;;;;;;;;;22.70;42.50;;;;;;4912831;29;19931;-86
2022/08/20 04:56:47;;;;;;;;;;;22.70;42.50;;;;;;4920427;29;19927;-84
2022/08/20 04:59:14;;;;;;;;;;;22.70;42.40;;;;;;4916966;29;19981;-89
2022/08/20 05:01:41;;;;;;;;;;;22.70;42.70;;;;;;4915213;29;19985;-85
2022/08/20 05:04:07;;;;;;;;;;;22.60;43.10;;;;;;4920428;29;19942;-85
2022/08/20 05:06:35;;;;;;;;;;;22.50;43.30;;;;;;4921817;29;20388;-88
2022/08/20 05:09:01;;;;;;;;;;;22.50;42.70;;;;;;4936487;29;19931;-85
2022/08/20 05:11:28;;;;;;;;;;;22.50;43.00;;;;;;4943019;29;19930;-90
2022/08/20 05:14:07;;;;;;;;;;;22.60;42.80;;;;;;4929307;29;20001;-84
2022/08/20 05:16:40;;;;;;;;;;;22.70;42.60;;;;;;4928329;29;20354;-87
2022/08/20 05:19:08;;;;;;;;;;;22.70;42.60;;;;;;4924178;29;19937;-87
2022/08/20 05:21:35;;;;;;;;;;;22.70;43.00;;;;;;4926535;29;19926;-84
2022/08/20 05:24:02;;;;;;;;;;;22.60;43.50;;;;;;4909707;29;19928;-87
2022/08/20 05:26:31;;;;;;;;;;;22.60;43.20;;;;;;4904859;29;20335;-89
2022/08/20 05:28:59;;;;;;;;;;;22.50;43.00;;;;;;4901606;29;19967;-87
2022/08/20 05:31:27;;;;;;;;;;;22.60;42.90;;;;;;4899953;29;19934;-88
2022/08/20 05:34:08;;;;;;;;;;;22.50;43.20;;;;;;4903379;29;19938;-88
2022/08/20 05:36:38;;;;;;;;;;;22.50;43.40;;;;;;4892789;29;20329;-86
2022/08/20 05:39:05;;;;;;;;;;;22.50;43.40;;;;;;4896776;29;19927;-85
2022/08/20 05:41:32;;;;;;;;;;;22.50;43.50;;;;;;4914782;29;19927;-87
2022/08/20 05:44:00;;;;;;;;;;;22.50;43.10;;;;;;4912969;29;19927;-86
2022/08/20 05:46:28;;;;;;;;;;;22.50;43.30;;;;;;4901854;29;19931;-88
2022/08/20 05:48:55;;;;;;;;;;;22.50;43.20;;;;;;4907839;29;19931;-86
2022/08/20 05:51:26;;;;;;;;;;;22.60;43.20;;;;;;4902717;29;19933;-85
2022/08/20 05:53:53;;;;;;;;;;;22.60;43.20;;;;;;4899842;29;19927;-86
2022/08/20 05:56:23;;;;;;;;;;;22.60;43.20;;;;;;4898569;29;19931;-86
2022/08/20 05:58:53;;;;;;;;;;;22.70;43.10;;;;;;4905469;29;19927;-87
2022/08/20 06:01:19;;;;;;;;;;;22.70;43.20;;;;;;4922060;29;19951;-87
2022/08/20 06:06:33;;;;;;;;;;;22.70;43.00;;;;;;4923709;29;19982;-86
2022/08/20 06:09:16;;;;;;;;;;;22.80;43.00;;;;;;4899197;29;20448;-87
2022/08/20 06:12:02;;;;;;;;;;;22.80;42.90;;;;;;4899349;29;19994;-89
2022/08/20 06:14:31;;;;;;;;;;;22.90;42.80;;;;;;4926638;29;20056;-88
2022/08/20 06:17:05;;;;;;;;;;;22.80;43.60;;;;;;4906895;29;19931;-87
2022/08/20 06:19:32;;;;;;;;;;;22.90;43.30;;;;;;4921645;29;19927;-87
2022/08/20 06:22:00;;;;;;;;;;;22.90;43.70;;;;;;4925480;29;20308;-86
2022/08/20 06:24:29;;;;;;;;;;;22.90;42.80;;;;;;4906795;29;20303;-90
2022/08/20 06:27:00;;;;;;;;;;;23.00;43.00;;;;;;4912267;29;20296;-87
2022/08/20 06:29:28;;;;;;;;;;;23.00;43.00;;;;;;4937795;29;20359;-89
2022/08/20 06:31:55;;;;;;;;;;;23.10;42.70;;;;;;4928385;29;20392;-87
2022/08/20 06:34:27;;;;;;;;;;;23.10;43.00;;;;;;4948391;29;19927;-88
2022/08/20 06:36:57;;;;;;;;;;;23.20;42.80;;;;;;4932175;29;19927;-90
2022/08/20 06:39:27;;;;;;;;;;;23.20;43.10;;;;;;4952418;29;19933;-85
2022/08/20 06:41:57;;;;;;;;;;;23.30;42.70;;;;;;4916880;29;19927;-91
2022/08/20 06:44:27;;;;;;;;;;;23.30;42.70;;;;;;4953744;29;19937;-89
2022/08/20 06:46:58;;;;;;;;;;;23.30;42.30;;;;;;4924973;29;19927;-85
2022/08/20 06:49:25;;;;;;;;;;;23.40;41.90;;;;;;4925790;29;19927;-83
2022/08/20 06:51:53;;;;;;;;;;;23.50;41.70;;;;;;4933399;29;19931;-90
2022/08/20 06:54:21;;;;;;;;;;;23.60;42.20;;;;;;4927706;29;20017;-89
2022/08/20 06:56:55;;;;;;;;;;;23.70;41.00;;;;;;4943807;29;19934;-84
2022/08/20 06:59:25;;;;;;;;;;;23.80;40.90;;;;;;4927248;29;19934;-89
2022/08/20 07:01:55;;;;;;;;;;;23.90;40.30;;;;;;4935027;28;20295;-88
2022/08/20 07:04:23;;;;;;;;;;;24.00;40.40;;;;;;4930697;29;19926;-84
2022/08/20 07:06:50;;;;;;;;;;;24.10;40.30;;;;;;4927646;29;19927;-86
2022/08/20 07:09:18;;;;;;;;;;;24.20;39.70;;;;;;4921104;29;19933;-85
2022/08/20 07:11:45;;;;;;;;;;;24.30;39.90;;;;;;4939781;29;19927;-86
2022/08/20 07:14:14;;;;;;;;;;;24.40;39.50;;;;;;4923777;29;19927;-88
2022/08/20 07:16:41;;;;;;;;;;;24.50;38.60;;;;;;4925581;29;19927;-84
2022/08/20 07:19:08;;;;;;;;;;;24.60;38.40;;;;;;4927894;29;19981;-85
2022/08/20 07:21:35;;;;;;;;;;;24.70;39.10;;;;;;4921448;29;19978;-89
2022/08/20 07:24:02;;;;;;;;;;;24.90;38.10;;;;;;4944187;29;20447;-85
2022/08/20 07:26:29;;;;;;;;;;;25.00;37.70;;;;;;4936003;29;19981;-86
2022/08/20 07:28:56;;;;;;;;;;;25.10;37.10;;;;;;4927870;29;19927;-86
2022/08/20 07:34:13;;;;;;;;;;;25.30;38.10;;;;;;4920028;29;19991;-86
2022/08/20 07:36:40;;;;;;;;;;;25.30;37.80;;;;;;4927601;29;20383;-84
2022/08/20 07:39:07;;;;;;;;;;;25.40;37.50;;;;;;4939074;29;19977;-85
2022/08/20 07:41:35;;;;;;;;;;;25.50;37.50;;;;;;4939373;29;19927;-87
2022/08/20 07:44:03;;;;;;;;;;;25.60;37.50;;;;;;4909743;29;19974;-87
2022/08/20 07:46:30;;;;;;;;;;;25.80;37.00;;;;;;4921534;29;20403;-86
2022/08/20 07:49:00;;;;;;;;;;;25.90;36.90;;;;;;4923543;29;19926;-85
2022/08/20 07:51:27;;;;;;;;;;;26.00;36.40;;;;;;4909349;29;20388;-84
2022/08/20 07:53:56;;;;;;;;;;;26.10;36.40;;;;;;4934700;29;20486;-84
2022/08/20 07:56:24;;;;;;;;;;;26.20;36.80;;;;;;4906754;29;20461;-86
2022/08/20 07:58:54;;;;;;;;;;;26.30;36.50;;;;;;4908761;29;19928;-88
2022/08/20 08:01:24;;;;;;;;;;;26.50;35.80;;;;;;4918219;29;20427;-85
2022/08/20 08:03:51;;;;;;;;;;;26.60;36.20;;;;;;4939911;29;19926;-84
2022/08/20 08:06:19;;;;;;;;;;;26.70;35.90;;;;;;4930828;29;19982;-86
2022/08/20 08:09:07;;;;;;;;;;;26.80;35.50;;;;;;4926201;29;19978;-89
2022/08/20 08:11:36;;;;;;;;;;;26.90;35.00;;;;;;4927775;29;19926;-85
2022/08/20 08:14:05;;;;;;;;;;;27.00;35.60;;;;;;4920504;29;19930;-87
2022/08/20 08:16:34;;;;;;;;;;;27.20;34.90;;;;;;4924758;29;19948;-87
2022/08/20 08:19:02;;;;;;;;;;;27.30;34.40;;;;;;4925686;29;19926;-85
2022/08/20 08:21:29;;;;;;;;;;;27.40;34.20;;;;;;4919547;29;19926;-86
2022/08/20 08:23:57;;;;;;;;;;;27.50;34.50;;;;;;4936916;29;20399;-87
2022/08/20 08:26:25;;;;;;;;;;;27.60;34.00;;;;;;4940225;29;19926;-86
2022/08/20 08:28:51;;;;;;;;;;;27.70;34.00;;;;;;4927875;29;20291;-87
2022/08/20 08:31:18;;;;;;;;;;;27.80;33.40;;;;;;4927733;29;20011;-84
2022/08/20 08:33:45;;;;;;;;;;;27.90;34.10;;;;;;4913840;29;19926;-87
2022/08/20 08:36:13;;;;;;;;;;;28.10;34.00;;;;;;4917539;29;19943;-88
2022/08/20 08:38:43;;;;;;;;;;;28.20;33.10;;;;;;4907976;29;19949;-87
2022/08/20 08:41:14;;;;;;;;;;;28.40;33.60;;;;;;4921263;29;19930;-89
2022/08/20 08:43:44;;;;;;;;;;;28.60;33.00;;;;;;4922292;29;19978;-85
2022/08/20 08:46:11;;;;;;;;;;;28.70;33.20;;;;;;4923919;29;19927;-85
2022/08/20 08:48:44;;;;;;;;;;;28.70;33.80;;;;;;4912302;29;19939;-88
2022/08/20 08:51:13;;;;;;;;;;;28.90;33.30;;;;;;4909123;29;20041;-85
2022/08/20 08:53:46;;;;;;;;;;;29.00;33.10;;;;;;4907928;29;20446;-86
2022/08/20 08:56:13;;;;;;;;;;;29.10;32.60;;;;;;4907604;29;20386;-89
2022/08/20 08:58:40;;;;;;;;;;;29.20;33.40;;;;;;4904990;29;19930;-86
2022/08/20 09:01:16;;;;;;;;;;;29.20;33.10;;;;;;4923868;29;19978;-86
2022/08/20 09:04:04;;;;;;;;;;;29.20;32.50;;;;;;4916304;29;20064;-86
2022/08/20 09:06:31;;;;;;;;;;;29.30;33.50;;;;;;4921573;29;19926;-86
2022/08/20 09:09:00;;;;;;;;;;;29.40;31.90;;;;;;4919645;29;20167;-84
2022/08/20 09:11:28;;;;;;;;;;;29.40;32.30;;;;;;4911858;29;19966;-86
2022/08/20 09:13:55;;;;;;;;;;;29.60;31.50;;;;;;4922016;28;19926;-86
2022/08/20 09:16:26;;;;;;;;;;;29.70;32.10;;;;;;4914992;29;19927;-87
2022/08/20 09:19:03;;;;;;;;;;;29.80;31.30;;;;;;4928527;29;19926;-85
2022/08/20 09:21:30;;;;;;;;;;;29.90;30.70;;;;;;4917769;29;19927;-85
2022/08/20 09:23:57;;;;;;;;;;;30.00;31.40;;;;;;4924077;29;19982;-86
2022/08/20 09:26:23;;;;;;;;;;;30.00;31.10;;;;;;4922743;29;19930;-87
2022/08/20 09:28:54;;;;;;;;;;;30.20;31.80;;;;;;4942134;29;20454;-84
2022/08/20 09:31:23;;;;;;;;;;;30.40;31.10;;;;;;4907649;29;19931;-86
2022/08/20 09:33:50;;;;;;;;;;;30.50;31.10;;;;;;4908579;29;19926;-85
2022/08/20 09:36:17;;;;;;;;;;;30.50;30.00;;;;;;4936641;29;20480;-86
2022/08/20 09:38:58;;;;;;;;;;;30.60;30.00;;;;;;4919275;29;20033;-87
2022/08/20 09:41:25;;;;;;;;;;;30.80;31.20;;;;;;4906142;29;19927;-88
2022/08/20 09:43:52;;;;;;;;;;;30.90;29.80;;;;;;4921459;29;19927;-87
2022/08/20 09:46:19;;;;;;;;;;;31.00;31.40;;;;;;4926282;29;19966;-87
2022/08/20 09:48:53;;;;;;;;;;;31.10;31.30;;;;;;4917487;29;19927;-86
2022/08/20 09:51:20;;;;;;;;;;;31.30;32.00;;;;;;4918446;29;19926;-85
2022/08/20 09:53:47;;;;;;;;;;;31.50;32.60;;;;;;4923795;29;19926;-88
2022/08/20 09:56:15;;;;;;;;;;;31.60;31.60;;;;;;4913945;29;20304;-86
2022/08/20 09:58:48;;;;;;;;;;;31.60;33.00;;;;;;4912714;29;19978;-87
2022/08/20 10:01:16;;;;;;;;;;;31.70;31.60;;;;;;4920057;29;19927;-87
2022/08/20 10:03:46;;;;;;;;;;;31.80;30.80;;;;;;4910390;29;19931;-85
2022/08/20 10:06:15;;;;;;;;;;;31.80;30.20;;;;;;4919201;29;19997;-86
2022/08/20 10:08:42;;;;;;;;;;;31.90;31.70;;;;;;4923476;29;19978;-87
2022/08/20 10:11:09;;;;;;;;;;;32.00;31.10;;;;;;4926107;28;19931;-87
2022/08/20 10:13:36;;;;;;;;;;;32.00;31.70;;;;;;4928717;29;20450;-87
2022/08/20 10:16:03;;;;;;;;;;;32.00;31.40;;;;;;4925451;29;20018;-87
2022/08/20 10:18:30;;;;;;;;;;;32.00;31.80;;;;;;4924511;29;19931;-86
2022/08/20 10:20:57;;;;;;;;;;;32.10;30.90;;;;;;4919758;28;19926;-86
2022/08/20 10:23:24;;;;;;;;;;;32.20;32.60;;;;;;4929253;29;20281;-86
2022/08/20 10:25:51;;;;;;;;;;;32.30;31.30;;;;;;4924069;29;19926;-87
2022/08/20 10:28:18;;;;;;;;;;;32.30;30.90;;;;;;4928964;29;19982;-87
2022/08/20 10:30:45;;;;;;;;;;;32.30;30.50;;;;;;4916921;29;19927;-88
2022/08/20 10:33:12;;;;;;;;;;;32.30;30.80;;;;;;4918793;29;20347;-86
2022/08/20 10:35:39;;;;;;;;;;;32.30;30.30;;;;;;4918934;29;19931;-86
2022/08/20 10:38:06;;;;;;;;;;;32.40;30.20;;;;;;4917861;29;19927;-86
2022/08/20 10:40:32;;;;;;;;;;;32.50;30.90;;;;;;4906756;29;19927;-88
2022/08/20 10:43:01;;;;;;;;;;;32.70;31.50;;;;;;4918656;29;19926;-87
2022/08/20 10:45:28;;;;;;;;;;;32.70;28.40;;;;;;4923515;29;19935;-88
2022/08/20 10:47:57;;;;;;;;;;;32.60;30.00;;;;;;4913133;29;19927;-87
2022/08/20 10:50:24;;;;;;;;;;;32.50;29.80;;;;;;4921520;29;19943;-87
2022/08/20 10:52:56;;;;;;;;;;;32.40;28.20;;;;;;4910663;29;19962;-86
2022/08/20 10:55:23;;;;;;;;;;;32.20;29.50;;;;;;4937965;29;19934;-86
2022/08/20 10:57:50;;;;;;;;;;;32.20;30.30;;;;;;4913199;29;19931;-87
2022/08/20 11:00:17;;;;;;;;;;;32.40;29.90;;;;;;4939801;29;19927;-87
2022/08/20 11:02:44;;;;;;;;;;;32.50;30.60;;;;;;4917913;29;19934;-89
2022/08/20 11:05:11;;;;;;;;;;;32.50;29.30;;;;;;4910377;29;19931;-89
2022/08/20 11:07:40;;;;;;;;;;;32.60;30.60;;;;;;4935662;29;19995;-89
2022/08/20 11:10:25;;;;;;;;;;;32.80;29.40;;;;;;4910772;29;19966;-88
2022/08/20 11:12:52;;;;;;;;;;;32.80;29.20;;;;;;4920800;29;19926;-85
2022/08/20 11:15:19;;;;;;;;;;;32.70;28.30;;;;;;4937063;29;19950;-88
2022/08/20 11:17:46;;;;;;;;;;;32.50;29.70;;;;;;4909963;29;19955;-88
2022/08/20 11:20:15;;;;;;;;;;;32.60;30.50;;;;;;4911366;29;19978;-87
2022/08/20 11:22:42;;;;;;;;;;;32.70;31.00;;;;;;4920004;29;19951;-88
2022/08/20 11:25:09;;;;;;;;;;;32.90;29.90;;;;;;4918178;29;20116;-87
2022/08/20 11:27:38;;;;;;;;;;;32.90;29.70;;;;;;4920425;29;19927;-90
2022/08/20 11:30:07;;;;;;;;;;;32.90;29.00;;;;;;4919290;29;19926;-86
2022/08/20 11:32:34;;;;;;;;;;;32.80;29.00;;;;;;4916539;29;19946;-86
2022/08/20 11:35:01;;;;;;;;;;;32.70;29.40;;;;;;4916436;29;20435;-85
2022/08/20 11:37:48;;;;;;;;;;;32.80;30.00;;;;;;4924018;29;20451;-86
2022/08/20 11:40:16;;;;;;;;;;;32.90;31.40;;;;;;4919368;29;19938;-85
2022/08/20 11:42:42;;;;;;;;;;;33.00;28.50;;;;;;4937434;29;19927;-89
2022/08/20 11:45:29;;;;;;;;;;;33.00;29.40;;;;;;4938065;29;19951;-88
2022/08/20 11:48:02;;;;;;;;;;;33.30;30.40;;;;;;4912512;29;19933;-85
2022/08/20 11:50:29;;;;;;;;;;;33.50;29.40;;;;;;4925944;29;19978;-87
2022/08/20 11:52:56;;;;;;;;;;;33.50;27.80;;;;;;4924171;29;19927;-85
2022/08/20 11:55:24;;;;;;;;;;;33.50;28.40;;;;;;4924379;29;19974;-85
2022/08/20 11:57:56;;;;;;;;;;;33.50;27.80;;;;;;4930314;29;19970;-87
2022/08/20 12:00:27;;;;;;;;;;;33.70;28.50;;;;;;4947897;29;19927;-87
2022/08/20 12:03:03;;;;;;;;;;;33.80;27.50;;;;;;4922926;29;19926;-85
2022/08/20 12:05:31;;;;;;;;;;;33.70;26.90;;;;;;4909394;29;19931;-89
2022/08/20 12:08:01;;;;;;;;;;;33.50;27.40;;;;;;4924144;29;19966;-88
2022/08/20 12:10:28;;;;;;;;;;;33.50;27.30;;;;;;4924330;29;19931;-88
2022/08/20 12:12:56;;;;;;;;;;;33.70;28.10;;;;;;4931640;29;19935;-90
2022/08/20 12:15:25;;;;;;;;;;;33.80;27.20;;;;;;4913437;29;20040;-88
2022/08/20 12:17:52;;;;;;;;;;;33.70;26.50;;;;;;4923796;29;20459;-89
2022/08/20 12:20:19;;;;;;;;;;;33.60;28.20;;;;;;4914104;29;20352;-89
2022/08/20 12:22:46;;;;;;;;;;;33.60;28.00;;;;;;4924151;28;19974;-89
2022/08/20 12:25:13;;;;;;;;;;;33.80;28.70;;;;;;4917535;29;20026;-87
2022/08/20 12:27:40;;;;;;;;;;;34.10;28.60;;;;;;4938236;28;19933;-85
2022/08/20 12:30:09;;;;;;;;;;;34.50;28.30;;;;;;4926116;29;19949;-86
2022/08/20 12:32:36;;;;;;;;;;;34.70;27.00;;;;;;4920928;29;19927;-84
2022/08/20 12:35:04;;;;;;;;;;;34.70;25.90;;;;;;4928938;29;19940;-84
2022/08/20 12:37:31;;;;;;;;;;;34.80;27.20;;;;;;4924840;29;19966;-86
2022/08/20 12:39:58;;;;;;;;;;;35.00;27.50;;;;;;4929946;29;19928;-86
2022/08/20 12:42:26;;;;;;;;;;;35.20;25.90;;;;;;4939094;29;19926;-83
2022/08/20 12:44:53;;;;;;;;;;;35.20;26.00;;;;;;4944157;29;19935;-84
2022/08/20 12:47:22;;;;;;;;;;;35.30;26.10;;;;;;4915001;29;19927;-90
2022/08/20 12:49:50;;;;;;;;;;;35.40;26.30;;;;;;4927294;29;19931;-87
2022/08/20 12:52:19;;;;;;;;;;;35.60;26.40;;;;;;4949211;28;19977;-80
2022/08/20 12:54:46;;;;;;;;;;;35.60;24.60;;;;;;4919366;29;19931;-85
2022/08/20 12:57:33;;;;;;;;;;;35.70;25.70;;;;;;4919681;29;19931;-83
2022/08/20 13:00:04;;;;;;;;;;;35.80;26.60;;;;;;4930363;29;19994;-87
2022/08/20 13:02:31;;;;;;;;;;;35.70;25.30;;;;;;4921186;29;19926;-87
2022/08/20 13:04:57;;;;;;;;;;;35.50;25.50;;;;;;4943813;28;19934;-83
2022/08/20 13:07:31;;;;;;;;;;;35.40;26.30;;;;;;4922806;29;20418;-87
2022/08/20 13:09:58;;;;;;;;;;;35.40;25.70;;;;;;4918532;29;19927;-82
2022/08/20 13:12:25;;;;;;;;;;;35.40;25.40;;;;;;4941176;29;19982;-86
2022/08/20 13:14:51;;;;;;;;;;;35.40;26.90;;;;;;4922671;29;19938;-86
2022/08/20 13:17:19;;;;;;;;;;;35.40;25.90;;;;;;4928788;29;19983;-85
2022/08/20 13:19:59;;;;;;;;;;;35.40;27.10;;;;;;4936000;29;19970;-85
2022/08/20 13:22:25;;;;;;;;;;;35.70;27.60;;;;;;4939976;29;19977;-86
2022/08/20 13:24:53;;;;;;;;;;;35.60;25.50;;;;;;4921627;29;19986;-87
2022/08/20 13:27:21;;;;;;;;;;;35.50;25.10;;;;;;4919928;28;19926;-87
2022/08/20 13:29:49;;;;;;;;;;;35.40;24.80;;;;;;4922835;29;19939;-90
2022/08/20 13:32:23;;;;;;;;;;;35.40;26.10;;;;;;4923115;29;20422;-87
2022/08/20 13:34:50;;;;;;;;;;;35.50;27.50;;;;;;4924503;29;19930;-90
2022/08/20 13:37:19;;;;;;;;;;;35.70;27.60;;;;;;4918618;29;19926;-86
2022/08/20 13:39:51;;;;;;;;;;;35.80;26.40;;;;;;4925707;29;19927;-85
2022/08/20 13:42:18;;;;;;;;;;;35.70;25.90;;;;;;4914519;29;19973;-86
2022/08/20 13:44:45;;;;;;;;;;;35.60;26.60;;;;;;4931402;29;19926;-87
2022/08/20 13:47:17;;;;;;;;;;;35.70;27.10;;;;;;4906705;29;20355;-85
2022/08/20 13:49:45;;;;;;;;;;;35.70;26.10;;;;;;4911483;29;20462;-89
2022/08/20 13:52:12;;;;;;;;;;;35.80;26.60;;;;;;4926505;29;19933;-85
2022/08/20 13:54:42;;;;;;;;;;;35.90;27.00;;;;;;4924154;29;20446;-84
2022/08/20 13:57:10;;;;;;;;;;;36.00;26.70;;;;;;4934251;29;19933;-87
2022/08/20 13:59:38;;;;;;;;;;;36.00;26.30;;;;;;4914690;29;19928;-85
2022/08/20 14:02:05;;;;;;;;;;;36.10;26.10;;;;;;4920437;29;19926;-86
2022/08/20 14:04:33;;;;;;;;;;;36.10;25.90;;;;;;4915408;29;19935;-86
2022/08/20 14:07:09;;;;;;;;;;;36.30;26.40;;;;;;4940395;29;19978;-90
2022/08/20 14:09:38;;;;;;;;;;;36.50;26.00;;;;;;4931462;29;20415;-85
2022/08/20 14:12:05;;;;;;;;;;;36.50;24.80;;;;;;4935433;29;19927;-85
2022/08/20 14:14:32;;;;;;;;;;;36.50;24.70;;;;;;4930026;29;19978;-84
2022/08/20 14:16:59;;;;;;;;;;;36.40;25.20;;;;;;4923010;29;19927;-90
2022/08/20 14:19:27;;;;;;;;;;;36.50;25.50;;;;;;4936944;29;19926;-85
2022/08/20 14:21:53;;;;;;;;;;;36.60;25.30;;;;;;4934265;29;19930;-89
2022/08/20 14:24:20;;;;;;;;;;;36.70;24.50;;;;;;4935056;29;19939;-89
2022/08/20 14:26:47;;;;;;;;;;;36.70;24.90;;;;;;4916037;29;19939;-89
2022/08/20 14:29:18;;;;;;;;;;;36.60;24.50;;;;;;4917081;29;20348;-88
2022/08/20 14:31:45;;;;;;;;;;;36.60;25.20;;;;;;4927676;29;19927;-89
2022/08/20 14:34:12;;;;;;;;;;;36.70;25.20;;;;;;4927448;29;20402;-89